createdAt,value
2018-03-25T00:00:18.062Z,46.58
2018-03-25T00:02:45.616Z,43.63
2018-03-25T00:05:13.153Z,42.92
2018-03-25T00:07:40.685Z,44.72
2018-03-25T00:10:08.265Z,45.40
2018-03-25T00:12:36.560Z,42.55
2018-03-25T00:15:04.093Z,46.88
2018-03-25T00:17:31.629Z,44.25
2018-03-25T00:19:59.164Z,44.58
2018-03-25T00:22:26.696Z,42.33
2018-03-25T00:24:54.197Z,46.90
2018-03-25T00:27:21.727Z,40.47
2018-03-25T00:29:49.247Z,44.92
2018-03-25T00:32:16.759Z,39.42
2018-03-25T00:34:44.299Z,40.10
2018-03-25T00:37:11.860Z,39.83
2018-03-25T00:39:39.391Z,51.53
2018-03-25T00:42:06.937Z,40.20
2018-03-25T00:44:34.479Z,41.58
2018-03-25T00:47:01.998Z,40.72
2018-03-25T00:49:29.487Z,41.47
2018-03-25T00:51:57.025Z,43.75
2018-03-25T00:54:24.538Z,41.67
2018-03-25T00:56:52.054Z,41.00
2018-03-25T00:59:19.567Z,39.60
2018-03-25T01:01:47.118Z,39.03
2018-03-25T01:04:14.650Z,41.60
2018-03-25T01:06:42.153Z,37.83
2018-03-25T01:09:09.680Z,42.33
2018-03-25T01:11:37.206Z,40.78
2018-03-25T01:14:04.734Z,48.87
2018-03-25T01:16:32.237Z,43.87
2018-03-25T01:18:59.779Z,42.97
2018-03-25T01:21:27.279Z,39.47
2018-03-25T01:23:55.583Z,40.42
2018-03-25T01:26:23.102Z,45.40
2018-03-25T01:28:50.614Z,44.70
2018-03-25T01:31:18.147Z,42.83
2018-03-25T01:33:45.627Z,42.33
2018-03-25T01:36:13.160Z,44.60
2018-03-25T01:38:41.418Z,40.30
2018-03-25T01:41:08.932Z,41.78
2018-03-25T01:43:36.456Z,40.05
2018-03-25T01:46:04.738Z,39.78
2018-03-25T01:48:32.269Z,38.78
2018-03-25T01:50:59.791Z,40.05
2018-03-25T01:53:27.312Z,37.97
2018-03-25T01:55:54.814Z,48.10
2018-03-25T01:58:22.319Z,39.15
2018-03-25T02:00:49.830Z,43.85
2018-03-25T02:03:17.413Z,40.00
2018-03-25T02:05:44.936Z,36.15
2018-03-25T02:08:13.273Z,41.13
2018-03-25T02:10:41.568Z,41.42
2018-03-25T02:13:09.101Z,39.60
2018-03-25T02:15:36.611Z,39.17
2018-03-25T02:18:04.158Z,42.75
2018-03-25T02:20:31.656Z,40.75
2018-03-25T02:22:59.194Z,46.00
2018-03-25T02:25:26.693Z,39.78
2018-03-25T02:27:55.008Z,37.95
2018-03-25T02:30:23.264Z,43.42
2018-03-25T02:32:50.803Z,43.42
2018-03-25T02:35:19.096Z,41.70
2018-03-25T02:37:47.361Z,42.75
2018-03-25T02:40:15.673Z,46.47
2018-03-25T02:42:43.180Z,46.95
2018-03-25T02:45:10.703Z,48.70
2018-03-25T02:47:38.228Z,46.40
2018-03-25T02:50:05.732Z,42.42
2018-03-25T02:52:33.253Z,43.70
2018-03-25T02:55:00.823Z,43.83
2018-03-25T02:57:28.318Z,44.97
2018-03-25T02:59:55.828Z,47.90
2018-03-25T03:02:23.438Z,45.35
2018-03-25T03:04:50.971Z,41.53
2018-03-25T03:07:18.502Z,45.38
2018-03-25T03:09:46.007Z,42.10
2018-03-25T03:12:13.549Z,47.50
2018-03-25T03:14:41.082Z,41.65
2018-03-25T03:17:08.632Z,43.85
2018-03-25T03:19:36.893Z,47.80
2018-03-25T03:22:05.171Z,46.97
2018-03-25T03:24:33.446Z,41.25
2018-03-25T03:27:02.520Z,42.55
2018-03-25T03:29:30.044Z,48.17
2018-03-25T03:31:57.568Z,44.38
2018-03-25T03:34:25.865Z,42.05
2018-03-25T03:36:53.370Z,44.10
2018-03-25T03:39:20.858Z,45.78
2018-03-25T03:41:49.157Z,49.20
2018-03-25T03:44:16.684Z,44.70
2018-03-25T03:46:44.220Z,51.37
2018-03-25T03:49:11.731Z,46.70
2018-03-25T03:51:39.272Z,48.90
2018-03-25T03:54:07.520Z,46.03
2018-03-25T03:56:35.051Z,46.08
2018-03-25T03:59:02.606Z,46.60
2018-03-25T04:01:30.112Z,51.05
2018-03-25T04:03:58.379Z,48.20
2018-03-25T04:06:25.906Z,46.42
2018-03-25T04:08:53.418Z,49.58
2018-03-25T04:11:21.691Z,46.15
2018-03-25T04:13:49.979Z,47.97
2018-03-25T04:16:17.503Z,45.60
2018-03-25T04:18:45.026Z,47.65
2018-03-25T04:21:12.527Z,56.13
2018-03-25T04:23:40.818Z,46.22
2018-03-25T04:26:09.113Z,48.15
2018-03-25T04:28:36.614Z,45.92
2018-03-25T04:31:04.131Z,44.08
2018-03-25T04:33:31.636Z,45.28
2018-03-25T04:35:59.147Z,49.38
2018-03-25T04:38:26.660Z,50.25
2018-03-25T04:40:54.195Z,43.08
2018-03-25T04:43:21.703Z,46.08
2018-03-25T04:45:49.980Z,46.60
2018-03-25T04:48:18.248Z,48.65
2018-03-25T04:50:46.538Z,43.53
2018-03-25T04:53:14.042Z,45.25
2018-03-25T04:55:41.566Z,55.33
2018-03-25T04:58:09.084Z,55.80
2018-03-25T05:00:36.637Z,51.92
2018-03-25T05:03:04.159Z,54.90
2018-03-25T05:05:31.695Z,52.50
2018-03-25T05:07:59.224Z,53.28
2018-03-25T05:10:26.743Z,54.13
2018-03-25T05:12:54.258Z,51.78
2018-03-25T05:15:22.533Z,51.90
2018-03-25T05:17:50.831Z,46.55
2018-03-25T05:20:18.332Z,48.05
2018-03-25T05:22:45.852Z,56.08
2018-03-25T05:25:13.395Z,53.60
2018-03-25T05:27:41.702Z,48.00
2018-03-25T05:30:09.200Z,48.63
2018-03-25T05:32:36.745Z,45.63
2018-03-25T05:35:04.238Z,51.90
2018-03-25T05:37:31.746Z,46.97
2018-03-25T05:39:59.275Z,52.40
2018-03-25T05:42:26.779Z,48.70
2018-03-25T05:44:54.336Z,54.38
2018-03-25T05:47:21.855Z,47.00
2018-03-25T05:49:49.360Z,46.63
2018-03-25T05:52:16.897Z,49.10
2018-03-25T05:54:44.429Z,49.67
2018-03-25T05:57:11.967Z,48.25
2018-03-25T05:59:40.237Z,46.75
2018-03-25T06:02:08.528Z,48.05
2018-03-25T06:04:36.837Z,49.97
2018-03-25T06:07:04.400Z,52.95
2018-03-25T06:09:31.886Z,53.50
2018-03-25T06:11:59.416Z,53.22
2018-03-25T06:14:26.914Z,54.80
2018-03-25T06:16:54.427Z,51.88
2018-03-25T06:19:21.932Z,55.17
2018-03-25T06:21:49.462Z,53.97
2018-03-25T06:24:16.958Z,53.60
2018-03-25T06:26:44.483Z,55.12
2018-03-25T06:29:12.015Z,51.47
2018-03-25T06:31:39.546Z,55.63
2018-03-25T06:34:07.064Z,50.75
2018-03-25T06:36:34.568Z,56.03
2018-03-25T06:39:02.091Z,50.75
2018-03-25T06:41:29.589Z,52.33
2018-03-25T06:43:57.121Z,53.22
2018-03-25T06:46:25.422Z,48.67
2018-03-25T06:48:53.745Z,53.28
2018-03-25T06:51:21.288Z,53.67
2018-03-25T06:53:48.830Z,52.95
2018-03-25T06:56:16.345Z,53.33
2018-03-25T06:58:43.838Z,57.33
2018-03-25T07:01:11.400Z,50.05
2018-03-25T07:03:38.926Z,55.33
2018-03-25T07:06:06.444Z,56.35
2018-03-25T07:08:33.988Z,54.65
2018-03-25T07:11:01.486Z,55.70
2018-03-25T07:13:28.975Z,51.05
2018-03-25T07:15:57.270Z,56.08
2018-03-25T07:18:24.795Z,53.70
2018-03-25T07:20:52.307Z,57.83
2018-03-25T07:23:19.861Z,61.45
2018-03-25T07:25:47.419Z,54.40
2018-03-25T07:28:14.974Z,72.93
2018-03-25T07:30:42.476Z,57.08
2018-03-25T07:33:10.016Z,52.95
2018-03-25T07:35:37.566Z,53.72
2018-03-25T07:38:05.097Z,58.28
2018-03-25T07:40:32.665Z,56.75
2018-03-25T07:43:00.170Z,57.55
2018-03-25T07:45:27.679Z,58.45
2018-03-25T07:47:55.215Z,54.50
2018-03-25T07:50:23.503Z,53.25
2018-03-25T07:52:51.034Z,56.25
2018-03-25T07:55:19.340Z,52.75
2018-03-25T07:57:46.867Z,57.75
2018-03-25T08:00:14.423Z,57.22
2018-03-25T08:02:41.953Z,55.10
2018-03-25T08:05:09.490Z,57.70
2018-03-25T08:07:37.020Z,58.20
2018-03-25T08:10:05.295Z,55.55
2018-03-25T08:12:33.582Z,55.97
2018-03-25T08:15:01.090Z,60.30
2018-03-25T08:17:28.622Z,62.22
2018-03-25T08:19:56.159Z,54.40
2018-03-25T08:22:24.478Z,57.72
2018-03-25T08:24:51.984Z,52.67
2018-03-25T08:27:20.321Z,60.80
2018-03-25T08:29:47.834Z,61.33
2018-03-25T08:32:15.356Z,81.28
2018-03-25T08:34:42.882Z,76.97
2018-03-25T08:37:10.397Z,53.55
2018-03-25T08:39:37.927Z,53.42
2018-03-25T08:42:05.437Z,56.10
2018-03-25T08:44:32.970Z,61.15
2018-03-25T08:47:01.288Z,58.35
2018-03-25T08:49:28.841Z,52.95
2018-03-25T08:51:56.356Z,51.00
2018-03-25T08:54:24.699Z,51.28
2018-03-25T08:56:52.199Z,54.67
2018-03-25T08:59:20.512Z,53.17
2018-03-25T09:01:48.052Z,55.15
2018-03-25T09:04:15.583Z,52.10
2018-03-25T09:06:43.912Z,50.45
2018-03-25T09:09:11.517Z,54.13
2018-03-25T09:11:39.870Z,50.08
2018-03-25T09:14:07.401Z,50.00
2018-03-25T09:16:34.931Z,52.72
2018-03-25T09:19:03.239Z,51.83
2018-03-25T09:21:30.797Z,52.23
2018-03-25T09:23:58.329Z,53.20
2018-03-25T09:26:25.847Z,51.07
2018-03-25T09:28:53.366Z,57.97
2018-03-25T09:31:20.886Z,56.00
2018-03-25T09:33:49.187Z,55.78
2018-03-25T09:36:16.695Z,49.90
2018-03-25T09:38:44.255Z,56.80
2018-03-25T09:41:11.765Z,53.70
2018-03-25T09:43:39.294Z,48.97
2018-03-25T09:46:07.604Z,53.35
2018-03-25T09:48:35.157Z,50.00
2018-03-25T09:51:02.692Z,51.58
2018-03-25T09:53:30.971Z,50.23
2018-03-25T09:55:59.268Z,52.47
2018-03-25T09:58:26.882Z,50.40
2018-03-25T10:03:56.082Z,51.80
2018-03-25T10:06:23.650Z,51.23
2018-03-25T10:08:51.232Z,48.10
2018-03-25T10:11:18.736Z,48.03
2018-03-25T10:13:46.272Z,49.43
2018-03-25T10:16:14.562Z,50.70
2018-03-25T10:18:42.100Z,49.83
2018-03-25T10:21:10.425Z,47.97
2018-03-25T10:23:37.971Z,47.90
2018-03-25T10:26:05.488Z,53.43
2018-03-25T10:28:32.996Z,49.03
2018-03-25T10:31:00.531Z,47.50
2018-03-25T10:33:28.075Z,45.83
2018-03-25T10:35:56.408Z,45.33
2018-03-25T10:38:23.907Z,46.47
2018-03-25T10:40:52.222Z,53.63
2018-03-25T10:43:19.742Z,48.93
2018-03-25T10:45:48.055Z,47.50
2018-03-25T10:48:15.606Z,48.53
2018-03-25T10:50:43.118Z,52.10
2018-03-25T10:53:10.694Z,47.37
2018-03-25T10:55:39.467Z,48.00
2018-03-25T10:58:07.023Z,49.17
2018-03-25T11:00:34.537Z,52.20
2018-03-25T11:03:02.071Z,47.53
2018-03-25T11:05:30.393Z,48.30
2018-03-25T11:07:57.916Z,43.93
2018-03-25T11:10:25.452Z,41.60
2018-03-25T11:12:53.752Z,42.70
2018-03-25T11:15:22.068Z,46.40
2018-03-25T11:17:49.581Z,38.17
2018-03-25T11:20:17.850Z,41.43
2018-03-25T11:22:46.151Z,44.43
2018-03-25T11:25:13.661Z,41.20
2018-03-25T11:27:41.205Z,39.87
2018-03-25T11:30:08.724Z,40.43
2018-03-25T11:32:36.256Z,40.87
2018-03-25T11:35:04.544Z,38.80
2018-03-25T11:37:32.829Z,37.60
2018-03-25T11:40:00.338Z,39.50
2018-03-25T11:42:27.871Z,41.23
2018-03-25T11:44:55.416Z,36.93
2018-03-25T11:47:22.949Z,36.93
2018-03-25T11:49:51.286Z,37.20
2018-03-25T11:52:18.824Z,37.57
2018-03-25T11:54:46.344Z,40.13
2018-03-25T11:57:14.629Z,41.27
2018-03-25T11:59:42.192Z,39.83
2018-03-25T12:02:09.713Z,37.63
2018-03-25T12:04:37.249Z,36.10
2018-03-25T12:07:04.799Z,38.83
2018-03-25T12:09:32.321Z,35.67
2018-03-25T12:12:00.622Z,37.10
2018-03-25T12:14:28.170Z,38.47
2018-03-25T12:16:55.781Z,37.43
2018-03-25T12:19:23.366Z,39.10
2018-03-25T12:21:51.710Z,35.97
2018-03-25T12:24:19.250Z,35.90
2018-03-25T12:26:46.791Z,36.63
2018-03-25T12:29:14.300Z,34.73
2018-03-25T12:31:41.836Z,35.53
2018-03-25T12:34:09.343Z,36.30
2018-03-25T12:36:37.655Z,36.97
2018-03-25T12:39:05.176Z,37.63
2018-03-25T12:41:33.465Z,36.40
2018-03-25T12:44:01.782Z,35.40
2018-03-25T12:46:29.339Z,33.90
2018-03-25T12:48:56.847Z,34.17
2018-03-25T12:51:25.124Z,35.93
2018-03-25T12:53:53.492Z,34.27
2018-03-25T12:56:21.003Z,34.57
2018-03-25T12:58:48.541Z,35.67
2018-03-25T13:01:16.097Z,32.07
2018-03-25T13:03:43.652Z,35.80
2018-03-25T13:06:11.931Z,30.63
2018-03-25T13:08:39.464Z,30.90
2018-03-25T13:11:06.971Z,36.63
2018-03-25T13:13:34.509Z,33.33
2018-03-25T13:16:02.068Z,32.63
2018-03-25T13:18:29.584Z,34.87
2018-03-25T13:20:57.142Z,33.73
2018-03-25T13:23:24.684Z,32.83
2018-03-25T13:25:52.241Z,30.30
2018-03-25T13:28:19.848Z,33.97
2018-03-25T13:30:48.351Z,31.63
2018-03-25T13:33:15.889Z,31.63
2018-03-25T13:35:44.212Z,32.27
2018-03-25T13:38:11.725Z,29.53
2018-03-25T13:40:40.031Z,34.00
2018-03-25T13:43:07.576Z,30.30
2018-03-25T13:45:35.177Z,27.60
2018-03-25T13:48:02.688Z,27.50
2018-03-25T13:50:30.261Z,29.40
2018-03-25T13:52:57.804Z,27.80
2018-03-25T13:55:26.078Z,29.50
2018-03-25T13:57:54.560Z,29.80
2018-03-25T14:00:22.832Z,28.10
2018-03-25T14:02:51.153Z,28.03
2018-03-25T14:05:18.713Z,25.00
2018-03-25T14:07:46.246Z,24.10
2018-03-25T14:10:13.806Z,22.60
2018-03-25T14:12:41.325Z,27.03
2018-03-25T14:15:08.824Z,23.57
2018-03-25T14:17:36.387Z,25.70
2018-03-25T14:20:03.921Z,25.13
2018-03-25T14:22:32.240Z,21.47
2018-03-25T14:24:59.746Z,18.60
2018-03-25T14:27:28.082Z,19.23
2018-03-25T14:29:55.673Z,22.50
2018-03-25T14:32:23.118Z,21.27
2018-03-25T14:34:50.665Z,22.90
2018-03-25T14:37:18.218Z,21.13
2018-03-25T14:39:45.752Z,20.70
2018-03-25T14:42:13.283Z,21.23
2018-03-25T14:44:40.809Z,19.33
2018-03-25T14:47:08.348Z,21.23
2018-03-25T14:49:35.894Z,19.80
2018-03-25T14:52:03.440Z,18.50
2018-03-25T14:54:30.968Z,25.03
2018-03-25T14:56:58.594Z,20.60
2018-03-25T14:59:26.118Z,21.23
2018-03-25T15:01:53.672Z,23.70
2018-03-25T15:04:21.197Z,21.97
2018-03-25T15:06:48.732Z,27.47
2018-03-25T15:09:16.279Z,21.97
2018-03-25T15:11:43.832Z,22.53
2018-03-25T15:14:11.347Z,22.20
2018-03-25T15:16:39.651Z,19.80
2018-03-25T15:19:07.204Z,19.90
2018-03-25T15:21:34.761Z,20.40
2018-03-25T15:24:03.082Z,21.67
2018-03-25T15:26:30.689Z,22.13
2018-03-25T15:28:59.025Z,21.90
2018-03-25T15:31:26.592Z,22.00
2018-03-25T15:33:54.139Z,24.57
2018-03-25T15:36:21.703Z,22.43
2018-03-25T15:38:49.209Z,23.27
2018-03-25T15:41:17.563Z,24.80
2018-03-25T15:43:45.089Z,24.40
2018-03-25T15:46:12.638Z,24.83
2018-03-25T15:48:40.175Z,22.87
2018-03-25T15:51:07.722Z,24.60
2018-03-25T15:53:35.260Z,25.60
2018-03-25T15:56:02.784Z,26.33
2018-03-25T15:58:30.302Z,24.53
2018-03-25T16:00:58.621Z,24.47
2018-03-25T16:03:26.135Z,27.40
2018-03-25T16:05:53.700Z,31.67
2018-03-25T16:08:21.999Z,27.90
2018-03-25T16:10:49.646Z,25.57
2018-03-25T16:13:17.291Z,29.10
2018-03-25T16:15:44.868Z,31.33
2018-03-25T16:18:12.411Z,31.07
2018-03-25T16:20:40.683Z,30.77
2018-03-25T16:23:09.024Z,26.30
2018-03-25T16:25:36.652Z,29.60
2018-03-25T16:28:04.200Z,24.77
2018-03-25T16:30:31.725Z,27.50
2018-03-25T16:32:59.271Z,29.60
2018-03-25T16:35:26.789Z,30.90
2018-03-25T16:37:54.305Z,28.00
2018-03-25T16:40:22.621Z,25.10
2018-03-25T16:42:50.171Z,27.43
2018-03-25T16:45:17.692Z,26.00
2018-03-25T16:47:45.234Z,26.50
2018-03-25T16:50:12.770Z,30.20
2018-03-25T16:52:40.338Z,30.30
2018-03-25T16:55:07.928Z,31.43
2018-03-25T16:57:35.428Z,29.80
2018-03-25T17:00:02.971Z,30.60
2018-03-25T17:02:30.524Z,30.60
2018-03-25T17:04:58.840Z,32.60
2018-03-25T17:07:26.371Z,30.97
2018-03-25T17:09:54.673Z,26.87
2018-03-25T17:12:22.226Z,30.53
2018-03-25T17:14:50.561Z,36.37
2018-03-25T17:17:18.070Z,34.97
2018-03-25T17:19:45.609Z,33.33
2018-03-25T17:22:13.185Z,35.17
2018-03-25T17:24:40.744Z,30.20
2018-03-25T17:27:09.136Z,32.13
2018-03-25T17:29:36.637Z,37.27
2018-03-25T17:32:04.155Z,43.17
2018-03-25T17:34:31.702Z,43.27
2018-03-25T17:36:59.257Z,37.23
2018-03-25T17:39:26.784Z,38.23
2018-03-25T17:41:55.128Z,36.93
2018-03-25T17:44:22.635Z,40.03
2018-03-25T17:46:50.180Z,37.20
2018-03-25T17:49:17.739Z,39.20
2018-03-25T17:51:45.286Z,42.10
2018-03-25T17:54:12.811Z,40.97
2018-03-25T17:56:40.339Z,37.87
2018-03-25T17:59:07.894Z,43.90
2018-03-25T18:01:35.432Z,40.50
2018-03-25T18:04:03.754Z,40.33
2018-03-25T18:06:31.258Z,40.53
2018-03-25T18:08:59.641Z,38.30
2018-03-25T18:11:27.937Z,42.53
2018-03-25T18:13:55.473Z,41.97
2018-03-25T18:16:22.997Z,38.23
2018-03-25T18:18:50.519Z,38.47
2018-03-25T18:21:18.058Z,41.40
2018-03-25T18:23:46.381Z,42.63
2018-03-25T18:26:13.907Z,40.43
2018-03-25T18:28:41.488Z,40.20
2018-03-25T18:31:09.041Z,40.90
2018-03-25T18:33:36.593Z,37.00
2018-03-25T18:36:04.165Z,34.00
2018-03-25T18:38:31.698Z,36.47
2018-03-25T18:41:00.021Z,39.17
2018-03-25T18:43:27.584Z,34.43
2018-03-25T18:45:55.145Z,36.03
2018-03-25T18:48:22.662Z,35.23
2018-03-25T18:50:50.225Z,38.20
2018-03-25T18:53:17.765Z,33.97
2018-03-25T18:55:45.327Z,34.33
2018-03-25T18:58:12.830Z,34.70
2018-03-25T19:00:40.448Z,38.27
2018-03-25T19:03:07.977Z,35.10
2018-03-25T19:05:35.564Z,33.27
2018-03-25T19:08:03.125Z,34.07
2018-03-25T19:10:30.686Z,33.43
2018-03-25T19:12:58.258Z,37.83
2018-03-25T19:15:25.786Z,43.80
2018-03-25T19:17:54.339Z,39.10
2018-03-25T19:20:21.919Z,50.10
2018-03-25T19:22:49.437Z,40.37
2018-03-25T19:25:16.991Z,37.80
2018-03-25T19:27:44.534Z,42.17
2018-03-25T19:30:12.087Z,39.50
2018-03-25T19:32:39.624Z,40.73
2018-03-25T19:35:07.148Z,36.20
2018-03-25T19:37:34.688Z,41.73
2018-03-25T19:40:02.231Z,40.97
2018-03-25T19:42:29.765Z,39.07
2018-03-25T19:44:57.278Z,39.90
2018-03-25T19:47:24.818Z,40.47
2018-03-25T19:49:52.321Z,39.33
2018-03-25T19:52:19.859Z,40.13
2018-03-25T19:54:47.399Z,37.17
2018-03-25T19:57:14.937Z,40.27
2018-03-25T19:59:42.505Z,36.60
2018-03-25T20:02:10.040Z,39.60
2018-03-25T20:04:38.412Z,37.83
2018-03-25T20:07:06.735Z,40.77
2018-03-25T20:09:34.250Z,37.47
2018-03-25T20:12:02.753Z,38.63
2018-03-25T20:14:30.304Z,35.07
2018-03-25T20:16:58.635Z,41.87
2018-03-25T20:19:26.152Z,38.83
2018-03-25T20:21:53.705Z,34.07
2018-03-25T20:24:21.230Z,37.20
2018-03-25T20:26:48.748Z,37.20
2018-03-25T20:29:16.288Z,45.67
2018-03-25T20:31:43.799Z,38.20
2018-03-25T20:34:11.365Z,43.77
2018-03-25T20:36:38.890Z,42.00
2018-03-25T20:39:06.404Z,40.03
2018-03-25T20:41:34.714Z,38.60
2018-03-25T20:44:02.215Z,39.87
2018-03-25T20:46:29.774Z,35.87
2018-03-25T20:48:57.279Z,46.23
2018-03-25T20:51:24.797Z,39.20
2018-03-25T20:53:52.347Z,38.00
2018-03-25T20:56:19.859Z,39.07
2018-03-25T20:58:47.374Z,40.10
2018-03-25T21:01:14.916Z,42.50
2018-03-25T21:03:42.426Z,42.80
2018-03-25T21:06:09.964Z,46.90
2018-03-25T21:08:38.294Z,47.77
2018-03-25T21:11:05.827Z,45.13
2018-03-25T21:13:33.319Z,37.50
2018-03-25T21:16:00.858Z,37.13
2018-03-25T21:18:28.393Z,37.23
2018-03-25T21:20:55.948Z,33.80
2018-03-25T21:23:23.474Z,35.40
2018-03-25T21:25:51.758Z,32.10
2018-03-25T21:28:20.058Z,33.23
2018-03-25T21:30:47.610Z,30.53
2018-03-25T21:33:15.895Z,33.10
2018-03-25T21:35:43.432Z,29.00
2018-03-25T21:38:10.936Z,29.10
2018-03-25T21:40:38.462Z,27.80
2018-03-25T21:43:05.982Z,31.47
2018-03-25T21:45:33.520Z,36.87
2018-03-25T21:48:01.030Z,40.33
2018-03-25T21:50:29.336Z,39.60
2018-03-25T21:52:56.883Z,41.10
2018-03-25T21:55:24.375Z,39.73
2018-03-25T21:57:51.890Z,37.83
2018-03-25T22:00:20.199Z,38.70
2018-03-25T22:02:47.691Z,36.57
2018-03-25T22:05:15.256Z,38.97
2018-03-25T22:07:42.783Z,36.58
2018-03-25T22:10:10.334Z,33.83
2018-03-25T22:12:37.864Z,37.00
2018-03-25T22:15:06.168Z,36.70
2018-03-25T22:17:33.661Z,37.13
2018-03-25T22:20:01.180Z,33.00
2018-03-25T22:22:28.678Z,36.20
2018-03-25T22:24:56.238Z,33.37
2018-03-25T22:27:23.787Z,32.77
2018-03-25T22:29:51.329Z,34.50
2018-03-25T22:32:18.852Z,32.08
2018-03-25T22:34:46.426Z,29.77
2018-03-25T22:37:13.933Z,30.60
2018-03-25T22:39:41.472Z,37.63
2018-03-25T22:42:08.975Z,30.85
2018-03-25T22:44:37.292Z,32.85
2018-03-25T22:47:04.809Z,29.52
2018-03-25T22:49:33.086Z,36.92
2018-03-25T22:52:01.381Z,36.65
2018-03-25T22:54:28.888Z,36.87
2018-03-25T22:56:56.420Z,37.78
2018-03-25T22:59:23.949Z,32.72
2018-03-25T23:01:51.506Z,34.50
2018-03-25T23:04:19.016Z,39.42
2018-03-25T23:06:46.515Z,34.47
2018-03-25T23:09:14.813Z,38.65
2018-03-25T23:11:42.365Z,39.22
2018-03-25T23:14:09.874Z,39.85
2018-03-25T23:16:37.403Z,46.85
2018-03-25T23:19:04.928Z,40.17
2018-03-25T23:21:33.211Z,38.45
2018-03-25T23:24:01.492Z,42.20
2018-03-25T23:26:28.990Z,41.47
2018-03-25T23:28:56.527Z,46.08
2018-03-25T23:31:24.055Z,38.92
2018-03-25T23:33:52.322Z,41.72
2018-03-25T23:36:20.626Z,42.17
2018-03-25T23:38:48.162Z,40.33
2018-03-25T23:41:15.679Z,40.50
2018-03-25T23:43:43.227Z,40.55
2018-03-25T23:46:11.511Z,42.22
2018-03-25T23:48:39.031Z,44.17
2018-03-25T23:51:07.330Z,40.97
2018-03-25T23:53:34.831Z,40.45
2018-03-25T23:56:02.362Z,40.78
2018-03-25T23:58:29.868Z,40.50
